sensor_id;sensor_type;location;lat;lon;timestamp;temperature;humidity
15133;DHT22;7667;51.232;17.110;2023-04-03T00:01:21;0.30;99.90
15133;DHT22;7667;51.232;17.110;2023-04-03T00:03:49;0.30;99.90
15133;DHT22;7667;51.232;17.110;2023-04-03T00:06:19;0.30;99.90
15133;DHT22;7667;51.232;17.110;2023-04-03T00:08:46;0.30;99.90
15133;DHT22;7667;51.232;17.110;2023-04-03T00:11:14;0.30;99.90
15133;DHT22;7667;51.232;17.110;2023-04-03T00:13:42;0.40;99.90
15133;DHT22;7667;51.232;17.110;2023-04-03T00:16:10;0.40;99.90
15133;DHT22;7667;51.232;17.110;2023-04-03T00:18:39;0.40;99.90
15133;DHT22;7667;51.232;17.110;2023-04-03T00:21:08;0.40;99.90
15133;DHT22;7667;51.232;17.110;2023-04-03T00:23:38;0.40;99.90
15133;DHT22;7667;51.232;17.110;2023-04-03T00:26:05;0.40;99.90
15133;DHT22;7667;51.232;17.110;2023-04-03T00:28:33;0.40;99.90
15133;DHT22;7667;51.232;17.110;2023-04-03T00:31:00;0.40;99.90
15133;DHT22;7667;51.232;17.110;2023-04-03T00:33:28;0.40;99.90
15133;DHT22;7667;51.232;17.110;2023-04-03T00:35:55;0.40;99.90
15133;DHT22;7667;51.232;17.110;2023-04-03T00:38:23;0.30;99.90
15133;DHT22;7667;51.232;17.110;2023-04-03T00:40:54;0.30;99.90
15133;DHT22;7667;51.232;17.110;2023-04-03T00:43:24;0.30;99.90
15133;DHT22;7667;51.232;17.110;2023-04-03T00:45:55;0.20;99.90
15133;DHT22;7667;51.232;17.110;2023-04-03T00:48:48;0.20;99.90
15133;DHT22;7667;51.232;17.110;2023-04-03T00:51:20;0.20;99.90
15133;DHT22;7667;51.232;17.110;2023-04-03T00:53:55;0.20;99.90
15133;DHT22;7667;51.232;17.110;2023-04-03T00:56:27;0.20;99.90
15133;DHT22;7667;51.232;17.110;2023-04-03T00:59:04;0.20;99.90
15133;DHT22;7667;51.232;17.110;2023-04-03T01:01:35;0.20;99.90
15133;DHT22;7667;51.232;17.110;2023-04-03T01:04:04;0.10;99.90
15133;DHT22;7667;51.232;17.110;2023-04-03T01:06:36;0.10;99.90
15133;DHT22;7667;51.232;17.110;2023-04-03T01:09:05;0.10;99.90
15133;DHT22;7667;51.232;17.110;2023-04-03T01:11:33;0.10;99.90
15133;DHT22;7667;51.232;17.110;2023-04-03T01:14:01;0.10;99.90
15133;DHT22;7667;51.232;17.110;2023-04-03T01:16:29;0.10;99.90
15133;DHT22;7667;51.232;17.110;2023-04-03T01:19:00;0.10;99.90
15133;DHT22;7667;51.232;17.110;2023-04-03T01:21:50;0.10;99.90
15133;DHT22;7667;51.232;17.110;2023-04-03T01:24:33;0.00;99.90
15133;DHT22;7667;51.232;17.110;2023-04-03T01:27:06;0.00;99.90
15133;DHT22;7667;51.232;17.110;2023-04-03T01:29:34;0.00;99.90
15133;DHT22;7667;51.232;17.110;2023-04-03T01:32:03;-0.10;99.90
15133;DHT22;7667;51.232;17.110;2023-04-03T01:34:31;-0.10;99.90
15133;DHT22;7667;51.232;17.110;2023-04-03T01:36:59;-0.10;99.90
15133;DHT22;7667;51.232;17.110;2023-04-03T01:39:26;-0.20;99.90
15133;DHT22;7667;51.232;17.110;2023-04-03T01:41:54;-0.20;99.90
15133;DHT22;7667;51.232;17.110;2023-04-03T01:44:22;-0.20;99.90
15133;DHT22;7667;51.232;17.110;2023-04-03T01:46:49;-0.20;99.90
15133;DHT22;7667;51.232;17.110;2023-04-03T01:49:17;-0.20;99.90
15133;DHT22;7667;51.232;17.110;2023-04-03T01:51:45;-0.30;99.90
15133;DHT22;7667;51.232;17.110;2023-04-03T01:54:13;-0.30;99.90
15133;DHT22;7667;51.232;17.110;2023-04-03T01:56:40;-0.30;99.90
15133;DHT22;7667;51.232;17.110;2023-04-03T01:59:08;-0.40;99.90
15133;DHT22;7667;51.232;17.110;2023-04-03T02:01:35;-0.40;99.90
15133;DHT22;7667;51.232;17.110;2023-04-03T02:04:03;-0.40;99.90
15133;DHT22;7667;51.232;17.110;2023-04-03T02:06:31;-0.50;99.90
15133;DHT22;7667;51.232;17.110;2023-04-03T02:08:59;-0.50;99.90
15133;DHT22;7667;51.232;17.110;2023-04-03T02:11:26;-0.50;99.90
15133;DHT22;7667;51.232;17.110;2023-04-03T02:13:54;-0.50;99.90
15133;DHT22;7667;51.232;17.110;2023-04-03T02:16:22;-0.60;99.90
15133;DHT22;7667;51.232;17.110;2023-04-03T02:18:49;-0.60;99.90
15133;DHT22;7667;51.232;17.110;2023-04-03T02:21:17;-0.60;99.90
15133;DHT22;7667;51.232;17.110;2023-04-03T02:23:45;-0.60;99.90
15133;DHT22;7667;51.232;17.110;2023-04-03T02:26:14;-0.70;99.90
15133;DHT22;7667;51.232;17.110;2023-04-03T02:28:42;-0.70;99.90
15133;DHT22;7667;51.232;17.110;2023-04-03T02:31:10;-0.70;99.90
15133;DHT22;7667;51.232;17.110;2023-04-03T02:33:38;-0.70;99.90
15133;DHT22;7667;51.232;17.110;2023-04-03T02:36:07;-0.80;99.90
15133;DHT22;7667;51.232;17.110;2023-04-03T02:38:35;-0.80;99.90
15133;DHT22;7667;51.232;17.110;2023-04-03T02:41:08;-0.80;99.90
15133;DHT22;7667;51.232;17.110;2023-04-03T02:43:37;-0.80;99.90
15133;DHT22;7667;51.232;17.110;2023-04-03T02:46:06;-0.90;99.90
15133;DHT22;7667;51.232;17.110;2023-04-03T02:48:34;-0.90;99.90
15133;DHT22;7667;51.232;17.110;2023-04-03T02:51:02;-0.90;99.90
15133;DHT22;7667;51.232;17.110;2023-04-03T02:53:30;-0.90;99.90
15133;DHT22;7667;51.232;17.110;2023-04-03T02:55:57;-0.90;99.90
15133;DHT22;7667;51.232;17.110;2023-04-03T02:58:25;-1.00;99.90
15133;DHT22;7667;51.232;17.110;2023-04-03T03:00:53;-1.00;99.90
15133;DHT22;7667;51.232;17.110;2023-04-03T03:03:21;-1.10;99.90
15133;DHT22;7667;51.232;17.110;2023-04-03T03:05:48;-1.10;99.90
15133;DHT22;7667;51.232;17.110;2023-04-03T03:08:16;-1.10;99.90
15133;DHT22;7667;51.232;17.110;2023-04-03T03:10:47;-1.10;99.90
15133;DHT22;7667;51.232;17.110;2023-04-03T03:13:14;-1.10;99.90
15133;DHT22;7667;51.232;17.110;2023-04-03T03:15:43;-1.20;99.90
15133;DHT22;7667;51.232;17.110;2023-04-03T03:18:10;-1.20;99.90
15133;DHT22;7667;51.232;17.110;2023-04-03T03:20:38;-1.10;99.90
15133;DHT22;7667;51.232;17.110;2023-04-03T03:23:05;-1.20;99.90
15133;DHT22;7667;51.232;17.110;2023-04-03T03:25:33;-1.20;99.90
15133;DHT22;7667;51.232;17.110;2023-04-03T03:28:01;-1.20;99.90
15133;DHT22;7667;51.232;17.110;2023-04-03T03:30:28;-1.20;99.90
15133;DHT22;7667;51.232;17.110;2023-04-03T03:32:56;-1.20;99.90
15133;DHT22;7667;51.232;17.110;2023-04-03T03:35:23;-1.20;99.90
15133;DHT22;7667;51.232;17.110;2023-04-03T03:37:51;-1.20;99.90
15133;DHT22;7667;51.232;17.110;2023-04-03T03:40:18;-1.30;99.90
15133;DHT22;7667;51.232;17.110;2023-04-03T03:42:46;-1.30;99.90
15133;DHT22;7667;51.232;17.110;2023-04-03T03:45:14;-1.30;99.90
15133;DHT22;7667;51.232;17.110;2023-04-03T03:47:41;-1.30;99.90
15133;DHT22;7667;51.232;17.110;2023-04-03T03:50:09;-1.30;99.90
15133;DHT22;7667;51.232;17.110;2023-04-03T03:52:37;-1.30;99.90
15133;DHT22;7667;51.232;17.110;2023-04-03T03:55:06;-1.30;99.90
15133;DHT22;7667;51.232;17.110;2023-04-03T03:57:34;-1.40;99.90
15133;DHT22;7667;51.232;17.110;2023-04-03T04:00:02;-1.40;99.90
15133;DHT22;7667;51.232;17.110;2023-04-03T04:02:31;-1.40;99.90
15133;DHT22;7667;51.232;17.110;2023-04-03T04:04:58;-1.40;99.90
15133;DHT22;7667;51.232;17.110;2023-04-03T04:07:26;-1.40;99.90
15133;DHT22;7667;51.232;17.110;2023-04-03T04:09:56;-1.40;99.90
15133;DHT22;7667;51.232;17.110;2023-04-03T04:12:23;-1.50;99.90
15133;DHT22;7667;51.232;17.110;2023-04-03T04:14:51;-1.50;99.90
15133;DHT22;7667;51.232;17.110;2023-04-03T04:17:19;-1.50;99.90
15133;DHT22;7667;51.232;17.110;2023-04-03T04:19:47;-1.50;99.90
15133;DHT22;7667;51.232;17.110;2023-04-03T04:22:14;-1.60;99.90
15133;DHT22;7667;51.232;17.110;2023-04-03T04:24:42;-1.60;99.90
15133;DHT22;7667;51.232;17.110;2023-04-03T04:27:09;-1.60;99.90
15133;DHT22;7667;51.232;17.110;2023-04-03T04:29:37;-1.60;99.90
15133;DHT22;7667;51.232;17.110;2023-04-03T04:32:05;-1.60;99.90
15133;DHT22;7667;51.232;17.110;2023-04-03T04:34:32;-1.60;99.90
15133;DHT22;7667;51.232;17.110;2023-04-03T04:37:00;-1.70;99.90
15133;DHT22;7667;51.232;17.110;2023-04-03T04:39:28;-1.70;99.90
15133;DHT22;7667;51.232;17.110;2023-04-03T04:41:55;-1.70;99.90
15133;DHT22;7667;51.232;17.110;2023-04-03T04:44:23;-1.70;99.90
15133;DHT22;7667;51.232;17.110;2023-04-03T04:46:50;-1.70;99.90
15133;DHT22;7667;51.232;17.110;2023-04-03T04:49:18;-1.70;99.90
15133;DHT22;7667;51.232;17.110;2023-04-03T04:51:45;-1.70;99.90
15133;DHT22;7667;51.232;17.110;2023-04-03T04:54:18;-1.70;99.90
15133;DHT22;7667;51.232;17.110;2023-04-03T04:56:46;-1.70;99.90
15133;DHT22;7667;51.232;17.110;2023-04-03T04:59:13;-1.60;99.90
15133;DHT22;7667;51.232;17.110;2023-04-03T05:01:41;-1.60;99.90
15133;DHT22;7667;51.232;17.110;2023-04-03T05:04:08;-1.60;99.90
15133;DHT22;7667;51.232;17.110;2023-04-03T05:06:37;-1.60;99.90
15133;DHT22;7667;51.232;17.110;2023-04-03T05:09:04;-1.60;99.90
15133;DHT22;7667;51.232;17.110;2023-04-03T05:11:32;-1.50;99.90
15133;DHT22;7667;51.232;17.110;2023-04-03T05:14:00;-1.50;99.90
15133;DHT22;7667;51.232;17.110;2023-04-03T05:16:27;-1.50;99.90
15133;DHT22;7667;51.232;17.110;2023-04-03T05:18:55;-1.40;99.90
15133;DHT22;7667;51.232;17.110;2023-04-03T05:21:23;-1.40;99.90
15133;DHT22;7667;51.232;17.110;2023-04-03T05:23:53;-1.40;99.90
15133;DHT22;7667;51.232;17.110;2023-04-03T05:26:20;-1.30;99.90
15133;DHT22;7667;51.232;17.110;2023-04-03T05:28:48;-1.30;99.90
15133;DHT22;7667;51.232;17.110;2023-04-03T05:31:15;-1.30;99.90
15133;DHT22;7667;51.232;17.110;2023-04-03T05:33:43;-1.20;99.90
15133;DHT22;7667;51.232;17.110;2023-04-03T05:36:10;-1.20;99.90
15133;DHT22;7667;51.232;17.110;2023-04-03T05:38:40;-1.20;99.90
15133;DHT22;7667;51.232;17.110;2023-04-03T05:41:07;-1.10;99.90
15133;DHT22;7667;51.232;17.110;2023-04-03T05:43:35;-1.10;99.90
15133;DHT22;7667;51.232;17.110;2023-04-03T05:46:12;-1.10;99.90
15133;DHT22;7667;51.232;17.110;2023-04-03T05:48:42;-1.00;99.90
15133;DHT22;7667;51.232;17.110;2023-04-03T05:51:28;-1.00;99.90
15133;DHT22;7667;51.232;17.110;2023-04-03T05:54:22;-0.90;99.90
15133;DHT22;7667;51.232;17.110;2023-04-03T05:56:52;-0.90;99.90
15133;DHT22;7667;51.232;17.110;2023-04-03T05:59:20;-0.90;99.90
15133;DHT22;7667;51.232;17.110;2023-04-03T06:01:48;-0.80;99.90
15133;DHT22;7667;51.232;17.110;2023-04-03T06:04:15;-0.70;99.90
15133;DHT22;7667;51.232;17.110;2023-04-03T06:06:50;-0.70;99.90
15133;DHT22;7667;51.232;17.110;2023-04-03T06:09:21;-0.60;99.90
15133;DHT22;7667;51.232;17.110;2023-04-03T06:11:50;-0.60;99.90
15133;DHT22;7667;51.232;17.110;2023-04-03T06:14:18;-0.60;99.90
15133;DHT22;7667;51.232;17.110;2023-04-03T06:16:46;-0.50;99.90
15133;DHT22;7667;51.232;17.110;2023-04-03T06:19:14;-0.50;99.90
15133;DHT22;7667;51.232;17.110;2023-04-03T06:21:42;-0.50;99.90
15133;DHT22;7667;51.232;17.110;2023-04-03T06:24:14;-0.40;99.90
15133;DHT22;7667;51.232;17.110;2023-04-03T06:26:44;-0.40;99.90
15133;DHT22;7667;51.232;17.110;2023-04-03T06:29:12;-0.30;99.90
15133;DHT22;7667;51.232;17.110;2023-04-03T06:31:40;-0.30;99.90
15133;DHT22;7667;51.232;17.110;2023-04-03T06:34:07;-0.20;99.90
15133;DHT22;7667;51.232;17.110;2023-04-03T06:36:35;-0.20;99.90
15133;DHT22;7667;51.232;17.110;2023-04-03T06:39:03;-0.10;99.90
15133;DHT22;7667;51.232;17.110;2023-04-03T06:41:31;-0.10;99.90
15133;DHT22;7667;51.232;17.110;2023-04-03T06:44:00;0.00;99.90
15133;DHT22;7667;51.232;17.110;2023-04-03T06:46:28;0.10;99.90
15133;DHT22;7667;51.232;17.110;2023-04-03T06:48:56;0.10;99.90
15133;DHT22;7667;51.232;17.110;2023-04-03T06:51:24;0.10;99.90
15133;DHT22;7667;51.232;17.110;2023-04-03T06:53:57;0.10;99.90
15133;DHT22;7667;51.232;17.110;2023-04-03T06:56:26;0.30;99.90
15133;DHT22;7667;51.232;17.110;2023-04-03T06:58:56;0.30;99.90
15133;DHT22;7667;51.232;17.110;2023-04-03T07:01:28;0.40;99.90
15133;DHT22;7667;51.232;17.110;2023-04-03T07:03:56;0.40;99.90
15133;DHT22;7667;51.232;17.110;2023-04-03T07:06:24;0.30;99.90
15133;DHT22;7667;51.232;17.110;2023-04-03T07:08:54;0.40;99.90
15133;DHT22;7667;51.232;17.110;2023-04-03T07:11:23;0.40;99.90
15133;DHT22;7667;51.232;17.110;2023-04-03T07:13:50;0.50;99.90
15133;DHT22;7667;51.232;17.110;2023-04-03T07:16:19;0.70;99.90
15133;DHT22;7667;51.232;17.110;2023-04-03T07:18:47;0.90;99.90
15133;DHT22;7667;51.232;17.110;2023-04-03T07:21:14;1.00;99.90
15133;DHT22;7667;51.232;17.110;2023-04-03T07:23:42;1.00;99.90
15133;DHT22;7667;51.232;17.110;2023-04-03T07:26:10;0.90;99.90
15133;DHT22;7667;51.232;17.110;2023-04-03T07:28:37;0.80;99.90
15133;DHT22;7667;51.232;17.110;2023-04-03T07:31:11;0.90;99.90
15133;DHT22;7667;51.232;17.110;2023-04-03T07:33:41;0.90;99.90
15133;DHT22;7667;51.232;17.110;2023-04-03T07:36:11;1.00;99.90
15133;DHT22;7667;51.232;17.110;2023-04-03T07:38:42;1.00;99.90
15133;DHT22;7667;51.232;17.110;2023-04-03T07:41:15;1.00;99.90
15133;DHT22;7667;51.232;17.110;2023-04-03T07:43:45;1.10;99.90
15133;DHT22;7667;51.232;17.110;2023-04-03T07:46:14;1.20;99.90
15133;DHT22;7667;51.232;17.110;2023-04-03T07:48:42;1.50;99.90
15133;DHT22;7667;51.232;17.110;2023-04-03T07:51:10;1.60;99.90
15133;DHT22;7667;51.232;17.110;2023-04-03T07:53:38;1.60;99.90
15133;DHT22;7667;51.232;17.110;2023-04-03T07:56:06;1.50;99.90
15133;DHT22;7667;51.232;17.110;2023-04-03T07:58:34;1.60;99.90
15133;DHT22;7667;51.232;17.110;2023-04-03T08:01:02;1.70;99.90
15133;DHT22;7667;51.232;17.110;2023-04-03T08:03:30;1.70;99.90
15133;DHT22;7667;51.232;17.110;2023-04-03T08:06:03;1.60;99.90
15133;DHT22;7667;51.232;17.110;2023-04-03T08:08:33;1.80;99.90
15133;DHT22;7667;51.232;17.110;2023-04-03T08:11:03;2.30;99.90
15133;DHT22;7667;51.232;17.110;2023-04-03T08:13:33;2.50;99.90
15133;DHT22;7667;51.232;17.110;2023-04-03T08:16:11;2.40;99.90
15133;DHT22;7667;51.232;17.110;2023-04-03T08:18:40;2.40;99.90
15133;DHT22;7667;51.232;17.110;2023-04-03T08:21:10;2.30;99.90
15133;DHT22;7667;51.232;17.110;2023-04-03T08:23:39;2.20;99.90
15133;DHT22;7667;51.232;17.110;2023-04-03T08:26:17;2.30;99.90
15133;DHT22;7667;51.232;17.110;2023-04-03T08:28:48;2.30;99.90
15133;DHT22;7667;51.232;17.110;2023-04-03T08:31:18;2.00;99.90
15133;DHT22;7667;51.232;17.110;2023-04-03T08:33:47;1.90;99.90
15133;DHT22;7667;51.232;17.110;2023-04-03T08:36:21;1.90;99.90
15133;DHT22;7667;51.232;17.110;2023-04-03T08:38:52;2.00;99.90
15133;DHT22;7667;51.232;17.110;2023-04-03T08:41:50;2.20;99.90
15133;DHT22;7667;51.232;17.110;2023-04-03T08:47:24;2.40;99.90
15133;DHT22;7667;51.232;17.110;2023-04-03T08:50:02;2.50;99.90
15133;DHT22;7667;51.232;17.110;2023-04-03T08:55:22;2.70;99.90
15133;DHT22;7667;51.232;17.110;2023-04-03T08:58:06;2.80;99.90
15133;DHT22;7667;51.232;17.110;2023-04-03T09:01:01;3.00;99.90
15133;DHT22;7667;51.232;17.110;2023-04-03T09:03:36;3.30;99.90
15133;DHT22;7667;51.232;17.110;2023-04-03T09:06:20;3.00;99.90
15133;DHT22;7667;51.232;17.110;2023-04-03T09:14:46;2.80;99.90
15133;DHT22;7667;51.232;17.110;2023-04-03T09:18:03;3.10;99.90
15133;DHT22;7667;51.232;17.110;2023-04-03T09:26:09;3.40;99.90
15133;DHT22;7667;51.232;17.110;2023-04-03T09:28:41;3.30;99.90
15133;DHT22;7667;51.232;17.110;2023-04-03T09:31:29;2.90;99.90
15133;DHT22;7667;51.232;17.110;2023-04-03T09:34:08;3.00;99.90
15133;DHT22;7667;51.232;17.110;2023-04-03T09:36:45;3.50;99.90
15133;DHT22;7667;51.232;17.110;2023-04-03T09:39:17;3.60;99.90
15133;DHT22;7667;51.232;17.110;2023-04-03T09:42:20;3.30;99.90
15133;DHT22;7667;51.232;17.110;2023-04-03T09:45:00;3.10;99.90
15133;DHT22;7667;51.232;17.110;2023-04-03T09:47:34;3.00;99.90
15133;DHT22;7667;51.232;17.110;2023-04-03T09:52:45;2.90;99.90
15133;DHT22;7667;51.232;17.110;2023-04-03T09:55:24;3.50;99.90
15133;DHT22;7667;51.232;17.110;2023-04-03T09:58:02;3.50;99.90
15133;DHT22;7667;51.232;17.110;2023-04-03T10:00:36;3.30;99.90
15133;DHT22;7667;51.232;17.110;2023-04-03T10:03:25;3.40;99.90
15133;DHT22;7667;51.232;17.110;2023-04-03T10:05:59;3.30;99.90
15133;DHT22;7667;51.232;17.110;2023-04-03T10:08:35;3.70;99.90
15133;DHT22;7667;51.232;17.110;2023-04-03T10:11:17;4.20;99.90
15133;DHT22;7667;51.232;17.110;2023-04-03T10:13:57;4.00;99.90
15133;DHT22;7667;51.232;17.110;2023-04-03T10:16:40;3.60;99.90
15133;DHT22;7667;51.232;17.110;2023-04-03T10:19:28;3.50;99.90
15133;DHT22;7667;51.232;17.110;2023-04-03T10:22:25;3.60;99.90
15133;DHT22;7667;51.232;17.110;2023-04-03T10:28:00;3.50;99.90
15133;DHT22;7667;51.232;17.110;2023-04-03T10:31:03;3.60;99.90
15133;DHT22;7667;51.232;17.110;2023-04-03T10:33:53;3.30;99.90
15133;DHT22;7667;51.232;17.110;2023-04-03T10:45:19;4.00;99.90
15133;DHT22;7667;51.232;17.110;2023-04-03T10:51:29;3.90;99.90
15133;DHT22;7667;51.232;17.110;2023-04-03T10:57:01;4.80;99.90
15133;DHT22;7667;51.232;17.110;2023-04-03T10:59:51;5.20;99.90
15133;DHT22;7667;51.232;17.110;2023-04-03T11:02:31;4.80;99.90
15133;DHT22;7667;51.232;17.110;2023-04-03T11:08:35;3.60;99.90
15133;DHT22;7667;51.232;17.110;2023-04-03T11:11:11;3.50;99.90
15133;DHT22;7667;51.232;17.110;2023-04-03T11:16:20;4.10;99.90
15133;DHT22;7667;51.232;17.110;2023-04-03T11:22:26;4.30;99.90
15133;DHT22;7667;51.232;17.110;2023-04-03T11:25:24;3.90;99.90
15133;DHT22;7667;51.232;17.110;2023-04-03T11:27:58;3.80;99.90
15133;DHT22;7667;51.232;17.110;2023-04-03T11:33:44;3.70;99.90
15133;DHT22;7667;51.232;17.110;2023-04-03T11:36:33;4.50;99.90
15133;DHT22;7667;51.232;17.110;2023-04-03T11:39:29;5.40;98.90
15133;DHT22;7667;51.232;17.110;2023-04-03T11:44:52;5.50;98.50
15133;DHT22;7667;51.232;17.110;2023-04-03T11:47:58;5.60;96.00
15133;DHT22;7667;51.232;17.110;2023-04-03T11:50:41;5.40;97.00
15133;DHT22;7667;51.232;17.110;2023-04-03T12:03:31;4.30;95.50
15133;DHT22;7667;51.232;17.110;2023-04-03T12:08:46;6.30;91.80
15133;DHT22;7667;51.232;17.110;2023-04-03T12:11:23;7.40;91.90
15133;DHT22;7667;51.232;17.110;2023-04-03T12:16:42;6.40;95.90
15133;DHT22;7667;51.232;17.110;2023-04-03T12:19:38;6.20;92.50
15133;DHT22;7667;51.232;17.110;2023-04-03T12:22:17;5.20;92.90
15133;DHT22;7667;51.232;17.110;2023-04-03T12:24:50;4.70;92.50
15133;DHT22;7667;51.232;17.110;2023-04-03T12:35:59;7.00;91.40
15133;DHT22;7667;51.232;17.110;2023-04-03T12:38:56;5.10;93.80
15133;DHT22;7667;51.232;17.110;2023-04-03T12:44:56;4.40;96.70
15133;DHT22;7667;51.232;17.110;2023-04-03T12:47:37;4.90;96.20
15133;DHT22;7667;51.232;17.110;2023-04-03T12:53:16;7.10;90.90
15133;DHT22;7667;51.232;17.110;2023-04-03T12:55:46;7.10;90.10
15133;DHT22;7667;51.232;17.110;2023-04-03T12:58:23;6.50;91.90
15133;DHT22;7667;51.232;17.110;2023-04-03T13:01:16;5.60;91.60
15133;DHT22;7667;51.232;17.110;2023-04-03T13:03:48;4.90;90.50
15133;DHT22;7667;51.232;17.110;2023-04-03T13:06:21;5.50;91.10
15133;DHT22;7667;51.232;17.110;2023-04-03T13:08:59;6.30;89.40
15133;DHT22;7667;51.232;17.110;2023-04-03T13:11:32;6.40;86.60
15133;DHT22;7667;51.232;17.110;2023-04-03T13:14:05;6.80;87.90
15133;DHT22;7667;51.232;17.110;2023-04-03T13:16:55;5.80;89.20
15133;DHT22;7667;51.232;17.110;2023-04-03T13:19:27;6.40;87.80
15133;DHT22;7667;51.232;17.110;2023-04-03T13:22:02;7.30;84.60
15133;DHT22;7667;51.232;17.110;2023-04-03T13:24:35;7.50;84.50
15133;DHT22;7667;51.232;17.110;2023-04-03T13:27:04;6.10;90.90
15133;DHT22;7667;51.232;17.110;2023-04-03T13:29:35;5.20;89.10
15133;DHT22;7667;51.232;17.110;2023-04-03T13:32:05;4.70;90.90
15133;DHT22;7667;51.232;17.110;2023-04-03T13:34:40;5.10;92.00
15133;DHT22;7667;51.232;17.110;2023-04-03T13:37:31;6.30;90.90
15133;DHT22;7667;51.232;17.110;2023-04-03T13:40:12;7.10;83.20
15133;DHT22;7667;51.232;17.110;2023-04-03T13:43:30;7.30;82.20
15133;DHT22;7667;51.232;17.110;2023-04-03T13:46:23;5.80;83.50
15133;DHT22;7667;51.232;17.110;2023-04-03T13:48:56;5.50;88.30
15133;DHT22;7667;51.232;17.110;2023-04-03T13:51:26;6.70;86.90
15133;DHT22;7667;51.232;17.110;2023-04-03T13:54:00;7.60;83.20
15133;DHT22;7667;51.232;17.110;2023-04-03T13:56:39;7.60;80.30
15133;DHT22;7667;51.232;17.110;2023-04-03T14:01:54;5.50;85.70
15133;DHT22;7667;51.232;17.110;2023-04-03T14:04:56;6.20;86.30
15133;DHT22;7667;51.232;17.110;2023-04-03T14:07:29;5.40;84.70
15133;DHT22;7667;51.232;17.110;2023-04-03T14:09:58;4.70;86.30
15133;DHT22;7667;51.232;17.110;2023-04-03T14:12:32;5.10;88.20
15133;DHT22;7667;51.232;17.110;2023-04-03T14:15:04;6.90;85.60
15133;DHT22;7667;51.232;17.110;2023-04-03T14:17:34;7.90;79.80
15133;DHT22;7667;51.232;17.110;2023-04-03T14:20:02;7.80;77.50
15133;DHT22;7667;51.232;17.110;2023-04-03T14:22:32;6.00;82.10
15133;DHT22;7667;51.232;17.110;2023-04-03T14:25:02;5.00;83.00
15133;DHT22;7667;51.232;17.110;2023-04-03T14:27:37;5.50;83.10
15133;DHT22;7667;51.232;17.110;2023-04-03T14:30:41;6.80;84.70
15133;DHT22;7667;51.232;17.110;2023-04-03T14:33:02;7.20;80.50
15133;DHT22;7667;51.232;17.110;2023-04-03T14:35:30;8.30;77.90
15133;DHT22;7667;51.232;17.110;2023-04-03T14:37:58;6.80;83.00
15133;DHT22;7667;51.232;17.110;2023-04-03T14:40:27;5.80;82.10
15133;DHT22;7667;51.232;17.110;2023-04-03T14:42:54;5.30;83.80
15133;DHT22;7667;51.232;17.110;2023-04-03T14:45:24;4.90;86.10
15133;DHT22;7667;51.232;17.110;2023-04-03T14:48:18;4.80;88.00
15133;DHT22;7667;51.232;17.110;2023-04-03T14:50:51;4.70;88.40
15133;DHT22;7667;51.232;17.110;2023-04-03T14:53:31;5.20;87.60
15133;DHT22;7667;51.232;17.110;2023-04-03T14:56:10;5.80;82.50
15133;DHT22;7667;51.232;17.110;2023-04-03T14:58:39;5.30;83.50
15133;DHT22;7667;51.232;17.110;2023-04-03T15:01:08;4.80;83.30
15133;DHT22;7667;51.232;17.110;2023-04-03T15:03:37;4.50;84.90
15133;DHT22;7667;51.232;17.110;2023-04-03T15:06:05;4.40;86.00
15133;DHT22;7667;51.232;17.110;2023-04-03T15:08:33;4.40;90.10
15133;DHT22;7667;51.232;17.110;2023-04-03T15:11:00;4.60;89.90
15133;DHT22;7667;51.232;17.110;2023-04-03T15:13:28;5.50;86.70
15133;DHT22;7667;51.232;17.110;2023-04-03T15:15:56;6.70;81.10
15133;DHT22;7667;51.232;17.110;2023-04-03T15:18:26;6.10;80.80
15133;DHT22;7667;51.232;17.110;2023-04-03T15:20:57;5.20;85.10
15133;DHT22;7667;51.232;17.110;2023-04-03T15:23:24;4.70;86.60
15133;DHT22;7667;51.232;17.110;2023-04-03T15:25:57;4.50;87.80
15133;DHT22;7667;51.232;17.110;2023-04-03T15:28:30;4.30;90.10
15133;DHT22;7667;51.232;17.110;2023-04-03T15:31:08;4.20;90.10
15133;DHT22;7667;51.232;17.110;2023-04-03T15:33:36;4.20;90.50
15133;DHT22;7667;51.232;17.110;2023-04-03T15:36:05;4.10;90.90
15133;DHT22;7667;51.232;17.110;2023-04-03T15:38:48;4.20;92.50
15133;DHT22;7667;51.232;17.110;2023-04-03T15:41:16;4.10;92.00
15133;DHT22;7667;51.232;17.110;2023-04-03T15:43:44;4.00;92.80
15133;DHT22;7667;51.232;17.110;2023-04-03T15:46:12;3.90;93.00
15133;DHT22;7667;51.232;17.110;2023-04-03T15:48:40;3.90;92.70
15133;DHT22;7667;51.232;17.110;2023-04-03T15:51:08;3.80;91.50
15133;DHT22;7667;51.232;17.110;2023-04-03T15:53:35;3.80;92.30
15133;DHT22;7667;51.232;17.110;2023-04-03T15:56:03;3.80;92.10
15133;DHT22;7667;51.232;17.110;2023-04-03T15:58:31;3.80;92.70
15133;DHT22;7667;51.232;17.110;2023-04-03T16:01:00;3.80;91.50
15133;DHT22;7667;51.232;17.110;2023-04-03T16:03:29;3.80;91.80
15133;DHT22;7667;51.232;17.110;2023-04-03T16:05:57;3.90;92.40
15133;DHT22;7667;51.232;17.110;2023-04-03T16:08:25;3.90;92.60
15133;DHT22;7667;51.232;17.110;2023-04-03T16:10:52;3.90;92.60
15133;DHT22;7667;51.232;17.110;2023-04-03T16:13:20;3.90;93.70
15133;DHT22;7667;51.232;17.110;2023-04-03T16:15:48;3.80;93.10
15133;DHT22;7667;51.232;17.110;2023-04-03T16:18:16;3.70;94.60
15133;DHT22;7667;51.232;17.110;2023-04-03T16:20:45;3.70;93.00
15133;DHT22;7667;51.232;17.110;2023-04-03T16:23:13;3.60;92.60
15133;DHT22;7667;51.232;17.110;2023-04-03T16:25:41;3.50;92.10
15133;DHT22;7667;51.232;17.110;2023-04-03T16:28:14;3.50;92.00
15133;DHT22;7667;51.232;17.110;2023-04-03T16:30:42;3.40;92.20
15133;DHT22;7667;51.232;17.110;2023-04-03T16:33:12;3.40;92.80
15133;DHT22;7667;51.232;17.110;2023-04-03T16:35:40;3.40;93.40
15133;DHT22;7667;51.232;17.110;2023-04-03T16:38:11;3.30;92.60
15133;DHT22;7667;51.232;17.110;2023-04-03T16:40:39;3.30;93.90
15133;DHT22;7667;51.232;17.110;2023-04-03T16:43:07;3.30;94.20
15133;DHT22;7667;51.232;17.110;2023-04-03T16:45:34;3.30;93.80
15133;DHT22;7667;51.232;17.110;2023-04-03T16:48:03;3.30;94.10
15133;DHT22;7667;51.232;17.110;2023-04-03T16:50:31;3.20;94.10
15133;DHT22;7667;51.232;17.110;2023-04-03T16:52:59;3.20;95.10
15133;DHT22;7667;51.232;17.110;2023-04-03T16:55:27;3.20;94.70
15133;DHT22;7667;51.232;17.110;2023-04-03T16:57:54;3.20;94.70
15133;DHT22;7667;51.232;17.110;2023-04-03T17:00:22;3.20;94.40
15133;DHT22;7667;51.232;17.110;2023-04-03T17:02:50;3.20;94.60
15133;DHT22;7667;51.232;17.110;2023-04-03T17:05:17;3.10;95.00
15133;DHT22;7667;51.232;17.110;2023-04-03T17:07:45;3.10;94.40
15133;DHT22;7667;51.232;17.110;2023-04-03T17:10:13;3.10;94.80
15133;DHT22;7667;51.232;17.110;2023-04-03T17:12:41;3.10;94.40
15133;DHT22;7667;51.232;17.110;2023-04-03T17:15:09;3.10;94.50
15133;DHT22;7667;51.232;17.110;2023-04-03T17:17:37;3.10;94.70
15133;DHT22;7667;51.232;17.110;2023-04-03T17:20:05;3.10;95.50
15133;DHT22;7667;51.232;17.110;2023-04-03T17:22:34;3.00;96.90
15133;DHT22;7667;51.232;17.110;2023-04-03T17:25:03;2.90;97.40
15133;DHT22;7667;51.232;17.110;2023-04-03T17:27:31;2.90;97.70
15133;DHT22;7667;51.232;17.110;2023-04-03T17:29:58;2.90;97.40
15133;DHT22;7667;51.232;17.110;2023-04-03T17:32:26;2.90;96.40
15133;DHT22;7667;51.232;17.110;2023-04-03T17:34:54;2.80;97.40
15133;DHT22;7667;51.232;17.110;2023-04-03T17:37:22;2.80;97.40